createdAt,value
2022-08-27T00:01:59.732Z,100.00
2022-08-27T00:04:28.513Z,100.00
2022-08-27T00:06:57.446Z,100.00
2022-08-27T00:09:27.338Z,100.00
2022-08-27T00:11:55.885Z,100.00
2022-08-27T00:14:26.052Z,100.00
2022-08-27T00:16:53.927Z,100.00
2022-08-27T00:19:22.460Z,100.00
2022-08-27T00:21:50.724Z,100.00
2022-08-27T00:24:18.721Z,100.00
2022-08-27T00:26:46.933Z,100.00
2022-08-27T00:29:15.070Z,100.00
2022-08-27T00:31:44.666Z,100.00
2022-08-27T00:34:13.331Z,100.00
2022-08-27T00:36:41.700Z,100.00
2022-08-27T00:39:10.155Z,100.00
2022-08-27T00:41:39.205Z,100.00
2022-08-27T00:44:09.472Z,100.00
2022-08-27T00:46:42.204Z,100.00
2022-08-27T00:49:18.279Z,100.00
2022-08-27T00:51:53.067Z,100.00
2022-08-27T00:54:23.029Z,100.00
2022-08-27T00:56:52.060Z,100.00
2022-08-27T00:59:23.896Z,100.00
2022-08-27T01:02:15.208Z,100.00
2022-08-27T01:04:47.828Z,100.00
2022-08-27T01:07:15.953Z,100.00
2022-08-27T01:09:45.271Z,100.00
2022-08-27T01:12:13.482Z,100.00
2022-08-27T01:14:43.043Z,100.00
2022-08-27T01:17:12.340Z,100.00
2022-08-27T01:19:45.951Z,100.00
2022-08-27T01:22:23.472Z,100.00
2022-08-27T01:24:56.144Z,100.00
2022-08-27T01:27:27.313Z,100.00
2022-08-27T01:29:55.971Z,100.00
2022-08-27T01:32:28.034Z,100.00
2022-08-27T01:34:57.507Z,100.00
2022-08-27T01:37:27.726Z,100.00
2022-08-27T01:39:58.972Z,100.00
2022-08-27T01:42:32.228Z,100.00
2022-08-27T01:45:05.624Z,100.00
2022-08-27T01:47:34.759Z,100.00
2022-08-27T01:50:04.182Z,100.00
2022-08-27T01:52:32.600Z,100.00
2022-08-27T01:55:02.253Z,100.00
2022-08-27T01:57:31.070Z,100.00
2022-08-27T01:59:59.365Z,100.00
2022-08-27T02:02:27.517Z,100.00
2022-08-27T02:04:55.723Z,100.00
2022-08-27T02:07:23.850Z,100.00
2022-08-27T02:09:52.293Z,100.00
2022-08-27T02:12:21.794Z,100.00
2022-08-27T02:14:49.929Z,100.00
2022-08-27T02:17:18.049Z,100.00
2022-08-27T02:19:46.575Z,100.00
2022-08-27T02:22:15.097Z,100.00
2022-08-27T02:24:43.212Z,100.00
2022-08-27T02:27:11.683Z,100.00
2022-08-27T02:29:41.207Z,100.00
2022-08-27T02:32:22.406Z,100.00
2022-08-27T02:34:57.436Z,100.00
2022-08-27T02:37:25.674Z,100.00
2022-08-27T02:39:53.744Z,100.00
2022-08-27T02:42:21.871Z,100.00
2022-08-27T02:44:51.405Z,100.00
2022-08-27T02:47:19.661Z,100.00
2022-08-27T02:49:48.008Z,100.00
2022-08-27T02:52:16.960Z,100.00
2022-08-27T02:54:54.117Z,100.00
2022-08-27T02:57:22.319Z,100.00
2022-08-27T02:59:52.136Z,100.00
2022-08-27T03:02:21.226Z,100.00
2022-08-27T03:04:50.206Z,100.00
2022-08-27T03:07:19.536Z,100.00
2022-08-27T03:09:47.879Z,100.00
2022-08-27T03:12:16.365Z,100.00
2022-08-27T03:14:44.733Z,100.00
2022-08-27T03:17:31.690Z,100.00
2022-08-27T03:20:01.644Z,100.00
2022-08-27T03:22:29.786Z,100.00
2022-08-27T03:24:57.818Z,100.00
2022-08-27T03:27:25.959Z,100.00
2022-08-27T03:29:54.474Z,100.00
2022-08-27T03:32:24.191Z,100.00
2022-08-27T03:34:52.310Z,100.00
2022-08-27T03:37:20.328Z,100.00
2022-08-27T03:39:48.360Z,100.00
2022-08-27T03:42:16.924Z,100.00
2022-08-27T03:44:45.115Z,100.00
2022-08-27T03:47:13.171Z,100.00
2022-08-27T03:49:42.798Z,100.00
2022-08-27T03:52:11.123Z,100.00
2022-08-27T03:54:39.609Z,100.00
2022-08-27T03:57:08.382Z,100.00
2022-08-27T03:59:36.468Z,100.00
2022-08-27T04:02:05.035Z,100.00
2022-08-27T04:04:33.145Z,100.00
2022-08-27T04:07:02.676Z,100.00
2022-08-27T04:09:30.713Z,100.00
2022-08-27T04:11:58.908Z,100.00
2022-08-27T04:14:27.623Z,100.00
2022-08-27T04:16:56.611Z,100.00
2022-08-27T04:19:28.010Z,100.00
2022-08-27T04:22:02.645Z,100.00
2022-08-27T04:24:32.817Z,100.00
2022-08-27T04:27:01.833Z,100.00
2022-08-27T04:29:30.349Z,100.00
2022-08-27T04:31:59.224Z,100.00
2022-08-27T04:34:27.913Z,100.00
2022-08-27T04:36:57.827Z,100.00
2022-08-27T04:39:28.403Z,100.00
2022-08-27T04:41:59.418Z,100.00
2022-08-27T04:44:29.389Z,100.00
2022-08-27T04:46:59.383Z,100.00
2022-08-27T04:49:28.518Z,100.00
2022-08-27T04:51:56.740Z,100.00
2022-08-27T04:54:32.347Z,100.00
2022-08-27T04:57:03.265Z,100.00
2022-08-27T04:59:31.232Z,100.00
2022-08-27T05:01:59.941Z,100.00
2022-08-27T05:04:31.553Z,100.00
2022-08-27T05:07:00.665Z,100.00
2022-08-27T05:09:28.707Z,100.00
2022-08-27T05:11:57.161Z,100.00
2022-08-27T05:14:30.082Z,100.00
2022-08-27T05:16:59.030Z,100.00
2022-08-27T05:19:27.047Z,100.00
2022-08-27T05:21:55.495Z,100.00
2022-08-27T05:24:24.039Z,100.00
2022-08-27T05:26:52.301Z,100.00
2022-08-27T05:29:20.576Z,100.00
2022-08-27T05:31:49.966Z,100.00
2022-08-27T05:34:21.952Z,100.00
2022-08-27T05:36:54.134Z,100.00
2022-08-27T05:39:22.180Z,100.00
2022-08-27T05:41:52.440Z,100.00
2022-08-27T05:47:10.212Z,100.00
2022-08-27T05:49:38.909Z,100.00
2022-08-27T05:52:10.753Z,100.00
2022-08-27T05:54:39.830Z,100.00
2022-08-27T05:57:08.285Z,100.00
2022-08-27T05:59:54.176Z,100.00
2022-08-27T06:02:24.337Z,100.00
2022-08-27T06:04:53.542Z,100.00
2022-08-27T06:07:21.714Z,100.00
2022-08-27T06:09:49.940Z,100.00
2022-08-27T06:12:18.223Z,100.00
2022-08-27T06:14:46.217Z,100.00
2022-08-27T06:17:14.363Z,100.00
2022-08-27T06:19:43.883Z,100.00
2022-08-27T06:22:12.059Z,100.00
2022-08-27T06:24:41.955Z,100.00
2022-08-27T06:27:11.735Z,100.00
2022-08-27T06:29:40.164Z,100.00
2022-08-27T06:32:09.239Z,100.00
2022-08-27T06:34:38.031Z,100.00
2022-08-27T06:37:07.843Z,100.00
2022-08-27T06:39:37.550Z,100.00
2022-08-27T06:42:06.402Z,100.00
2022-08-27T06:44:35.364Z,100.00
2022-08-27T06:47:04.693Z,100.00
2022-08-27T06:49:33.631Z,100.00
2022-08-27T06:52:01.834Z,100.00
2022-08-27T06:54:31.332Z,100.00
2022-08-27T06:57:00.203Z,100.00
2022-08-27T06:59:29.127Z,100.00
2022-08-27T07:01:57.290Z,100.00
2022-08-27T07:04:32.655Z,100.00
2022-08-27T07:07:02.282Z,100.00
2022-08-27T07:09:33.079Z,100.00
2022-08-27T07:12:01.672Z,100.00
2022-08-27T07:14:32.970Z,100.00
2022-08-27T07:17:04.199Z,100.00
2022-08-27T07:19:32.326Z,100.00
2022-08-27T07:22:00.328Z,100.00
2022-08-27T07:24:28.386Z,100.00
2022-08-27T07:26:58.919Z,100.00
2022-08-27T07:29:31.701Z,100.00
2022-08-27T07:32:00.171Z,100.00
2022-08-27T07:34:28.522Z,100.00
2022-08-27T07:36:56.714Z,100.00
2022-08-27T07:39:24.939Z,100.00
2022-08-27T07:42:10.229Z,100.00
2022-08-27T07:44:39.696Z,100.00
2022-08-27T07:47:08.805Z,100.00
2022-08-27T07:49:37.669Z,100.00
2022-08-27T07:52:06.694Z,100.00
2022-08-27T07:54:35.035Z,100.00
2022-08-27T07:57:03.106Z,100.00
2022-08-27T07:59:31.161Z,100.00
2022-08-27T08:02:00.918Z,100.00
2022-08-27T08:04:28.947Z,100.00
2022-08-27T08:06:57.673Z,100.00
2022-08-27T08:09:25.775Z,99.26
2022-08-27T08:11:55.055Z,100.00
2022-08-27T08:14:23.402Z,98.89
2022-08-27T08:16:51.747Z,97.16
2022-08-27T08:19:21.226Z,96.57
2022-08-27T08:21:49.262Z,97.14
2022-08-27T08:24:18.377Z,96.93
2022-08-27T08:26:46.585Z,97.35
2022-08-27T08:29:17.923Z,98.37
2022-08-27T08:31:49.881Z,97.44
2022-08-27T08:34:19.339Z,96.46
2022-08-27T08:36:54.049Z,96.10
2022-08-27T08:39:23.473Z,97.25
2022-08-27T08:41:53.627Z,96.32
2022-08-27T08:44:32.081Z,96.97
2022-08-27T08:47:04.769Z,97.88
2022-08-27T08:49:48.197Z,98.35
2022-08-27T08:52:31.558Z,98.59
2022-08-27T08:55:09.864Z,97.59
2022-08-27T08:57:43.439Z,97.06
2022-08-27T09:00:14.832Z,96.57
2022-08-27T09:02:50.402Z,97.52
2022-08-27T09:05:19.063Z,96.74
2022-08-27T09:08:09.898Z,97.21
2022-08-27T09:10:49.795Z,96.07
2022-08-27T09:13:24.158Z,96.06
2022-08-27T09:15:56.640Z,95.28
2022-08-27T09:18:28.133Z,95.48
2022-08-27T09:21:07.444Z,95.45
2022-08-27T09:23:46.210Z,94.32
2022-08-27T09:26:28.276Z,93.60
2022-08-27T09:29:20.384Z,93.60
2022-08-27T09:31:55.778Z,93.93
2022-08-27T09:34:24.757Z,95.25
2022-08-27T09:37:00.578Z,93.00
2022-08-27T09:39:36.423Z,92.93
2022-08-27T09:42:06.018Z,91.33
2022-08-27T09:44:34.417Z,90.48
2022-08-27T09:47:04.919Z,89.19
2022-08-27T09:49:36.808Z,88.07
2022-08-27T09:52:05.337Z,86.54
2022-08-27T09:54:45.444Z,85.19
2022-08-27T09:57:28.841Z,85.28
2022-08-27T09:59:59.469Z,85.09
2022-08-27T10:02:28.156Z,84.94
2022-08-27T10:04:59.630Z,84.64
2022-08-27T10:07:36.676Z,83.82
2022-08-27T10:10:12.111Z,85.04
2022-08-27T10:12:51.831Z,84.90
2022-08-27T10:15:20.083Z,84.79
2022-08-27T10:18:01.299Z,84.68
2022-08-27T10:20:40.438Z,85.07
2022-08-27T10:23:19.420Z,84.77
2022-08-27T10:26:00.359Z,84.93
2022-08-27T10:28:46.586Z,84.99
2022-08-27T10:31:22.585Z,85.06
2022-08-27T10:34:04.534Z,85.71
2022-08-27T10:36:44.680Z,86.62
2022-08-27T10:39:26.485Z,85.46
2022-08-27T10:42:04.753Z,86.50
2022-08-27T10:44:47.372Z,87.30
2022-08-27T10:47:30.689Z,88.67
2022-08-27T10:50:06.578Z,89.42
2022-08-27T10:52:39.367Z,89.38
2022-08-27T10:55:15.485Z,89.14
2022-08-27T10:58:07.890Z,89.78
2022-08-27T11:00:43.128Z,90.19
2022-08-27T11:03:15.281Z,88.78
2022-08-27T11:05:47.096Z,88.52
2022-08-27T11:08:20.906Z,89.34
2022-08-27T11:10:52.882Z,89.06
2022-08-27T11:13:34.296Z,88.49
2022-08-27T11:16:07.333Z,88.33
2022-08-27T11:18:43.213Z,88.74
2022-08-27T11:21:15.862Z,90.47
2022-08-27T11:23:47.788Z,90.19
2022-08-27T11:26:16.427Z,90.83
2022-08-27T11:28:50.492Z,91.40
2022-08-27T11:31:24.016Z,92.28
2022-08-27T11:34:03.272Z,92.28
2022-08-27T11:37:06.776Z,93.88
2022-08-27T11:40:04.244Z,94.07
2022-08-27T11:42:39.178Z,93.14
2022-08-27T11:45:21.171Z,92.48
2022-08-27T11:47:55.510Z,91.26
2022-08-27T11:50:25.737Z,90.96
2022-08-27T11:52:58.438Z,92.09
2022-08-27T11:55:31.378Z,91.14
2022-08-27T11:58:24.258Z,89.94
2022-08-27T12:00:54.888Z,89.16
2022-08-27T12:03:30.332Z,88.33
2022-08-27T12:06:26.665Z,87.21
2022-08-27T12:09:06.461Z,87.00
2022-08-27T12:11:45.492Z,88.05
2022-08-27T12:14:28.764Z,88.04
2022-08-27T12:17:05.228Z,88.55
2022-08-27T12:19:46.020Z,89.22
2022-08-27T12:22:30.094Z,88.13
2022-08-27T12:25:00.248Z,88.22
2022-08-27T12:27:34.475Z,88.91
2022-08-27T12:30:07.699Z,89.69
2022-08-27T12:32:44.375Z,89.72
2022-08-27T12:35:16.869Z,89.59
2022-08-27T12:37:49.016Z,89.28
2022-08-27T12:40:28.921Z,89.08
2022-08-27T12:43:07.888Z,88.96
2022-08-27T12:45:45.281Z,87.58
2022-08-27T12:48:18.733Z,87.80
2022-08-27T12:50:53.307Z,87.93
2022-08-27T12:53:32.297Z,88.03
2022-08-27T12:56:14.426Z,87.41
2022-08-27T12:58:54.374Z,86.66
2022-08-27T13:01:43.021Z,85.47
2022-08-27T13:04:21.885Z,84.89
2022-08-27T13:06:50.887Z,85.16
2022-08-27T13:09:29.371Z,83.53
2022-08-27T13:11:59.648Z,83.57
2022-08-27T13:14:29.805Z,83.80
2022-08-27T13:17:00.652Z,83.71
2022-08-27T13:19:33.754Z,83.59
2022-08-27T13:22:05.161Z,82.67
2022-08-27T13:24:35.422Z,82.78
2022-08-27T13:27:07.397Z,82.28
2022-08-27T13:29:36.315Z,82.87
2022-08-27T13:32:05.682Z,81.12
2022-08-27T13:34:38.256Z,81.67
2022-08-27T13:37:08.954Z,80.67
2022-08-27T13:39:39.149Z,80.98
2022-08-27T13:42:08.470Z,81.38
2022-08-27T13:44:38.868Z,81.20
2022-08-27T13:47:09.267Z,80.99
2022-08-27T13:49:41.896Z,80.23
2022-08-27T13:52:24.165Z,79.89
2022-08-27T13:54:59.260Z,79.53
2022-08-27T13:57:30.798Z,78.71
2022-08-27T14:00:10.490Z,79.38
2022-08-27T14:02:38.734Z,77.97
2022-08-27T14:05:13.439Z,77.65
2022-08-27T14:07:47.502Z,78.08
2022-08-27T14:10:32.527Z,77.25
2022-08-27T14:13:03.885Z,77.96
2022-08-27T14:15:34.617Z,77.94
2022-08-27T14:18:04.904Z,78.04
2022-08-27T14:20:35.544Z,77.69
2022-08-27T14:23:04.665Z,78.30
2022-08-27T14:25:34.537Z,77.27
2022-08-27T14:28:02.789Z,78.18
2022-08-27T14:30:31.470Z,77.58
2022-08-27T14:33:00.516Z,76.98
2022-08-27T14:35:29.760Z,77.09
2022-08-27T14:38:02.535Z,76.72
2022-08-27T14:40:31.428Z,77.81
2022-08-27T14:43:01.341Z,78.44
2022-08-27T14:45:29.638Z,77.80
2022-08-27T14:48:02.198Z,78.12
2022-08-27T14:50:30.845Z,77.10
2022-08-27T14:53:00.869Z,77.06
2022-08-27T14:55:30.918Z,76.49
2022-08-27T14:57:59.158Z,76.31
2022-08-27T15:00:30.441Z,75.60
2022-08-27T15:02:58.982Z,75.32
2022-08-27T15:05:28.071Z,76.36
2022-08-27T15:07:58.150Z,75.87
2022-08-27T15:10:28.278Z,75.17
2022-08-27T15:12:56.914Z,74.51
2022-08-27T15:15:25.555Z,75.88
2022-08-27T15:17:53.758Z,76.38
2022-08-27T15:20:21.899Z,77.12
2022-08-27T15:22:53.190Z,77.46
2022-08-27T15:25:22.384Z,76.81
2022-08-27T15:27:51.989Z,77.13
2022-08-27T15:30:27.689Z,77.36
2022-08-27T15:32:56.649Z,77.40
2022-08-27T15:35:28.427Z,77.08
2022-08-27T15:37:59.258Z,77.27
2022-08-27T15:40:30.034Z,77.64
2022-08-27T15:43:03.761Z,77.45
2022-08-27T15:45:33.513Z,77.47
2022-08-27T15:48:02.411Z,78.08
2022-08-27T15:50:31.916Z,78.14
2022-08-27T15:53:02.711Z,78.50
2022-08-27T15:55:33.565Z,78.37
2022-08-27T15:58:03.505Z,78.30
2022-08-27T16:00:34.417Z,78.14
2022-08-27T16:03:04.721Z,78.30
2022-08-27T16:05:35.064Z,77.56
2022-08-27T16:08:03.837Z,77.83
2022-08-27T16:10:32.405Z,78.78
2022-08-27T16:13:00.479Z,79.06
2022-08-27T16:15:30.669Z,78.74
2022-08-27T16:17:59.749Z,79.40
2022-08-27T16:20:28.731Z,80.21
2022-08-27T16:22:56.968Z,80.07
2022-08-27T16:25:25.349Z,79.76
2022-08-27T16:27:53.853Z,78.78
2022-08-27T16:30:23.030Z,79.30
2022-08-27T16:32:53.247Z,79.00
2022-08-27T16:35:21.536Z,79.07
2022-08-27T16:37:49.640Z,79.48
2022-08-27T16:40:18.193Z,79.45
2022-08-27T16:42:49.939Z,77.88
2022-08-27T16:45:21.856Z,77.26
2022-08-27T16:48:08.241Z,77.30
2022-08-27T16:50:37.985Z,77.68
2022-08-27T16:53:09.205Z,76.79
2022-08-27T16:55:39.106Z,76.66
2022-08-27T16:58:10.423Z,76.95
2022-08-27T17:00:39.411Z,76.66
2022-08-27T17:03:09.230Z,76.62
2022-08-27T17:05:38.807Z,76.20
2022-08-27T17:08:06.978Z,76.11
2022-08-27T17:10:46.382Z,76.09
2022-08-27T17:13:16.675Z,75.33
2022-08-27T17:15:48.729Z,74.90
2022-08-27T17:18:20.976Z,74.75
2022-08-27T17:20:50.378Z,74.88
2022-08-27T17:23:23.050Z,74.86
2022-08-27T17:25:51.131Z,74.54
2022-08-27T17:28:19.665Z,75.25
2022-08-27T17:30:48.088Z,74.72
2022-08-27T17:33:21.416Z,74.25
2022-08-27T17:35:50.762Z,74.40
2022-08-27T17:38:18.833Z,74.61
2022-08-27T17:40:47.385Z,74.96
2022-08-27T17:43:21.273Z,75.40
2022-08-27T17:45:50.058Z,75.10
2022-08-27T17:48:22.681Z,75.13
2022-08-27T17:50:55.536Z,75.30
2022-08-27T17:53:23.952Z,75.40
2022-08-27T17:55:52.190Z,75.51
2022-08-27T17:58:20.666Z,75.38
2022-08-27T18:00:48.817Z,75.06
2022-08-27T18:03:21.118Z,74.88
2022-08-27T18:05:50.102Z,75.51
2022-08-27T18:08:20.585Z,76.28
2022-08-27T18:10:49.680Z,76.61
2022-08-27T18:13:18.930Z,75.78
2022-08-27T18:15:48.516Z,76.76
2022-08-27T18:18:16.817Z,76.29
2022-08-27T18:20:45.193Z,76.51
2022-08-27T18:23:13.740Z,77.14
2022-08-27T18:25:45.541Z,76.75
2022-08-27T18:28:15.080Z,76.75
2022-08-27T18:30:44.742Z,76.92
2022-08-27T18:33:13.758Z,77.32
2022-08-27T18:35:42.846Z,77.08
2022-08-27T18:38:10.987Z,78.06
2022-08-27T18:40:41.937Z,79.71
2022-08-27T18:43:12.024Z,78.47
2022-08-27T18:45:40.174Z,79.18
2022-08-27T18:48:14.672Z,79.90
2022-08-27T18:50:46.424Z,79.19
2022-08-27T18:53:16.721Z,80.00
2022-08-27T18:55:45.485Z,79.74
2022-08-27T18:58:15.291Z,80.21
2022-08-27T19:00:46.463Z,81.47
2022-08-27T19:03:18.861Z,82.16
2022-08-27T19:05:48.361Z,82.49
2022-08-27T19:08:23.316Z,82.99
2022-08-27T19:10:51.461Z,83.11
2022-08-27T19:13:21.205Z,83.82
2022-08-27T19:15:57.677Z,83.32
2022-08-27T19:18:28.666Z,84.41
2022-08-27T19:20:57.296Z,86.12
2022-08-27T19:23:26.371Z,83.72
2022-08-27T19:25:55.246Z,84.32
2022-08-27T19:28:29.613Z,84.55
2022-08-27T19:30:58.907Z,85.23
2022-08-27T19:33:26.961Z,84.24
2022-08-27T19:35:55.023Z,85.08
2022-08-27T19:38:24.734Z,85.13
2022-08-27T19:40:52.957Z,85.21
2022-08-27T19:43:21.000Z,84.63
2022-08-27T19:45:50.784Z,84.26
2022-08-27T19:48:18.922Z,84.68
2022-08-27T19:50:46.912Z,84.50
2022-08-27T19:53:18.943Z,83.95
2022-08-27T19:55:47.261Z,82.68
2022-08-27T19:58:16.654Z,82.42
2022-08-27T20:00:46.370Z,82.49
2022-08-27T20:03:15.909Z,81.78
2022-08-27T20:05:44.563Z,81.74
2022-08-27T20:08:13.100Z,78.32
2022-08-27T20:10:41.773Z,77.75
2022-08-27T20:13:12.425Z,77.93
2022-08-27T20:15:40.729Z,76.32
2022-08-27T20:18:09.377Z,75.46
2022-08-27T20:20:39.668Z,75.85
2022-08-27T20:23:08.407Z,75.79
2022-08-27T20:25:37.612Z,75.69
2022-08-27T20:28:37.353Z,75.45
2022-08-27T20:30:57.452Z,74.50
2022-08-27T20:33:27.221Z,74.47
2022-08-27T20:35:57.822Z,74.41
2022-08-27T20:38:26.204Z,74.70
2022-08-27T20:40:54.279Z,74.19
2022-08-27T20:43:22.494Z,72.84
2022-08-27T20:45:50.835Z,72.73
2022-08-27T20:48:19.051Z,73.39
2022-08-27T20:50:47.730Z,73.08
2022-08-27T20:53:17.197Z,72.88
2022-08-27T20:55:45.657Z,72.80
2022-08-27T20:58:31.385Z,72.92
2022-08-27T21:01:00.380Z,72.97
2022-08-27T21:03:28.706Z,72.30
2022-08-27T21:05:56.744Z,73.46
2022-08-27T21:08:26.193Z,72.80
2022-08-27T21:10:57.821Z,73.10
2022-08-27T21:13:28.005Z,73.28
2022-08-27T21:15:56.466Z,72.87
2022-08-27T21:18:29.952Z,72.97
2022-08-27T21:20:58.656Z,72.52
2022-08-27T21:23:29.160Z,73.39
2022-08-27T21:25:57.424Z,73.55
2022-08-27T21:28:25.551Z,73.95
2022-08-27T21:30:53.580Z,74.28
2022-08-27T21:33:21.852Z,73.85
2022-08-27T21:35:49.899Z,73.38
2022-08-27T21:38:18.041Z,73.51
2022-08-27T21:40:47.608Z,73.70
2022-08-27T21:43:15.689Z,73.38
2022-08-27T21:45:43.950Z,73.50
2022-08-27T21:48:12.661Z,74.77
2022-08-27T21:50:40.700Z,74.32
2022-08-27T21:53:08.719Z,74.38
2022-08-27T21:55:36.699Z,73.60
2022-08-27T21:58:06.216Z,73.95
2022-08-27T22:00:42.099Z,73.81
2022-08-27T22:03:13.868Z,74.21
2022-08-27T22:05:43.590Z,75.41
2022-08-27T22:08:13.468Z,75.52
2022-08-27T22:10:45.659Z,75.15
2022-08-27T22:13:16.481Z,75.41
2022-08-27T22:15:44.673Z,74.89
2022-08-27T22:18:13.674Z,75.20
2022-08-27T22:20:42.136Z,75.08
2022-08-27T22:23:13.158Z,75.07
2022-08-27T22:25:42.634Z,74.71
2022-08-27T22:28:12.065Z,74.69
2022-08-27T22:30:42.408Z,74.75
2022-08-27T22:33:10.486Z,74.33
2022-08-27T22:35:38.885Z,74.66
2022-08-27T22:38:07.460Z,75.09
2022-08-27T22:40:37.390Z,75.17
2022-08-27T22:43:05.810Z,75.48
2022-08-27T22:45:34.600Z,75.46
2022-08-27T22:48:04.819Z,75.39
2022-08-27T22:50:32.692Z,75.63
2022-08-27T22:53:00.661Z,75.69
2022-08-27T22:55:30.559Z,76.49
2022-08-27T22:57:58.574Z,76.38
2022-08-27T23:00:29.125Z,76.19
2022-08-27T23:02:57.925Z,76.79
2022-08-27T23:05:28.488Z,76.71
2022-08-27T23:08:09.841Z,76.41
2022-08-27T23:10:38.571Z,76.17
2022-08-27T23:13:07.983Z,76.43
2022-08-27T23:15:36.011Z,76.42
2022-08-27T23:18:04.119Z,76.77
2022-08-27T23:20:34.215Z,77.69
2022-08-27T23:23:02.717Z,77.74
2022-08-27T23:25:49.005Z,77.87
2022-08-27T23:28:17.633Z,78.06
2022-08-27T23:30:47.005Z,78.43
2022-08-27T23:33:15.952Z,78.86
2022-08-27T23:35:48.194Z,78.86
2022-08-27T23:38:17.143Z,79.30
2022-08-27T23:40:46.243Z,79.32
2022-08-27T23:43:14.493Z,80.74
2022-08-27T23:45:43.239Z,80.52
2022-08-27T23:48:12.151Z,80.59
2022-08-27T23:50:40.863Z,81.22
2022-08-27T23:53:10.977Z,81.21
2022-08-27T23:55:40.400Z,81.41
2022-08-27T23:58:09.343Z,81.88
